createdAt,value
2019-03-22T00:01:15.256Z,236.30
2019-03-22T00:03:20.874Z,247.67
2019-03-22T00:05:26.409Z,229.20
2019-03-22T00:07:31.943Z,240.77
2019-03-22T00:09:37.609Z,228.50
2019-03-22T00:11:43.130Z,233.55
2019-03-22T00:13:48.665Z,226.85
2019-03-22T00:15:54.217Z,226.37
2019-03-22T00:18:00.576Z,229.60
2019-03-22T00:20:08.020Z,207.60
2019-03-22T00:22:14.533Z,200.62
2019-03-22T00:24:20.057Z,193.37
2019-03-22T00:26:25.584Z,197.30
2019-03-22T00:28:31.107Z,209.22
2019-03-22T00:30:36.635Z,214.05
2019-03-22T00:32:42.167Z,202.87
2019-03-22T00:34:47.755Z,205.80
2019-03-22T00:36:53.339Z,214.08
2019-03-22T00:38:58.856Z,203.98
2019-03-22T00:41:04.391Z,204.32
2019-03-22T00:43:09.911Z,199.72
2019-03-22T00:45:15.787Z,199.62
2019-03-22T00:47:21.313Z,192.87
2019-03-22T00:49:26.853Z,218.17
2019-03-22T00:51:32.415Z,210.82
2019-03-22T00:53:37.946Z,205.37
2019-03-22T00:55:43.480Z,219.62
2019-03-22T00:57:49.060Z,240.07
2019-03-22T00:59:54.643Z,226.75
2019-03-22T01:02:00.180Z,230.60
2019-03-22T01:04:05.799Z,228.58
2019-03-22T01:06:11.462Z,223.72
2019-03-22T01:08:17.063Z,230.32
2019-03-22T01:10:22.635Z,220.90
2019-03-22T01:12:28.171Z,215.10
2019-03-22T01:14:33.681Z,213.30
2019-03-22T01:16:39.215Z,205.72
2019-03-22T01:18:44.735Z,199.55
2019-03-22T01:20:50.260Z,193.43
2019-03-22T01:22:55.801Z,202.10
2019-03-22T01:25:01.321Z,181.07
2019-03-22T01:27:06.911Z,178.87
2019-03-22T01:29:12.448Z,180.95
2019-03-22T01:31:17.981Z,185.67
2019-03-22T01:33:23.501Z,183.82
2019-03-22T01:35:29.033Z,174.90
2019-03-22T01:37:34.556Z,167.70
2019-03-22T01:39:40.086Z,174.30
2019-03-22T01:41:45.620Z,173.95
2019-03-22T01:43:51.153Z,180.52
2019-03-22T01:45:56.666Z,172.60
2019-03-22T01:48:02.210Z,164.97
2019-03-22T01:50:10.731Z,153.00
2019-03-22T01:52:16.262Z,162.18
2019-03-22T01:54:21.796Z,158.85
2019-03-22T01:56:27.308Z,168.40
2019-03-22T01:58:32.828Z,171.47
2019-03-22T02:00:38.432Z,193.52
2019-03-22T02:02:43.959Z,195.60
2019-03-22T02:04:49.503Z,228.32
2019-03-22T02:06:55.041Z,218.93
2019-03-22T02:09:00.569Z,205.00
2019-03-22T02:11:07.796Z,186.10
2019-03-22T02:13:13.328Z,175.68
2019-03-22T02:15:18.839Z,179.03
2019-03-22T02:17:24.440Z,206.10
2019-03-22T02:19:29.973Z,217.93
2019-03-22T02:21:35.940Z,247.93
2019-03-22T02:23:42.468Z,220.45
2019-03-22T02:25:48.006Z,185.50
2019-03-22T02:28:03.789Z,161.60
2019-03-22T02:30:00.684Z,159.75
2019-03-22T02:32:06.203Z,162.70
2019-03-22T02:34:11.725Z,190.28
2019-03-22T02:36:17.253Z,201.67
2019-03-22T02:38:22.770Z,202.82
2019-03-22T02:40:28.296Z,210.72
2019-03-22T02:42:33.866Z,215.47
2019-03-22T02:44:39.417Z,199.77
2019-03-22T02:46:44.918Z,191.85
2019-03-22T02:48:50.459Z,177.82
2019-03-22T02:50:56.484Z,190.92
2019-03-22T02:53:02.222Z,172.65
2019-03-22T02:55:09.702Z,156.20
2019-03-22T02:57:15.226Z,164.05
2019-03-22T02:59:20.751Z,159.50
2019-03-22T03:01:26.289Z,173.30
2019-03-22T03:03:31.809Z,189.05
2019-03-22T03:05:37.336Z,186.15
2019-03-22T03:07:42.955Z,191.88
2019-03-22T03:09:48.464Z,182.53
2019-03-22T03:11:53.989Z,189.50
2019-03-22T03:13:59.518Z,177.02
2019-03-22T03:16:05.059Z,179.25
2019-03-22T03:18:10.592Z,180.60
2019-03-22T03:20:18.226Z,187.80
2019-03-22T03:22:23.728Z,191.80
2019-03-22T03:24:31.967Z,184.28
2019-03-22T03:26:37.490Z,182.02
2019-03-22T03:28:43.021Z,171.50
2019-03-22T03:30:48.588Z,168.17
2019-03-22T03:32:54.226Z,160.93
2019-03-22T03:34:59.745Z,151.75
2019-03-22T03:37:05.363Z,151.68
2019-03-22T03:39:10.897Z,137.82
2019-03-22T03:41:16.410Z,137.95
2019-03-22T03:43:21.941Z,139.88
2019-03-22T03:45:30.548Z,146.98
2019-03-22T03:47:36.065Z,127.82
2019-03-22T03:49:41.610Z,135.60
2019-03-22T03:51:47.124Z,139.97
2019-03-22T03:53:52.653Z,135.70
2019-03-22T03:55:58.202Z,139.57
2019-03-22T03:58:04.211Z,143.20
2019-03-22T04:00:10.064Z,139.62
2019-03-22T04:02:15.608Z,139.77
2019-03-22T04:04:21.132Z,138.47
2019-03-22T04:06:26.650Z,142.50
2019-03-22T04:08:32.319Z,144.05
2019-03-22T04:10:37.854Z,139.65
2019-03-22T04:12:43.357Z,137.40
2019-03-22T04:14:48.886Z,134.27
2019-03-22T04:16:54.415Z,131.40
2019-03-22T04:18:59.930Z,132.47
2019-03-22T04:21:05.466Z,126.65
2019-03-22T04:23:10.995Z,125.25
2019-03-22T04:25:17.618Z,126.25
2019-03-22T04:27:23.137Z,129.97
2019-03-22T04:29:28.651Z,156.95
2019-03-22T04:31:34.179Z,151.50
2019-03-22T04:33:39.727Z,180.07
2019-03-22T04:35:45.256Z,268.33
2019-03-22T04:37:50.786Z,407.00
2019-03-22T04:39:56.311Z,399.55
2019-03-22T04:42:01.833Z,391.32
2019-03-22T04:44:07.369Z,417.55
2019-03-22T04:46:14.140Z,406.57
2019-03-22T04:48:28.536Z,303.32
2019-03-22T04:52:40.329Z,441.88
2019-03-22T04:54:48.758Z,473.75
2019-03-22T04:56:57.106Z,423.32
2019-03-22T04:59:05.357Z,376.35
2019-03-22T05:01:13.931Z,403.08
2019-03-22T05:03:20.696Z,318.88
2019-03-22T05:05:26.314Z,264.88
2019-03-22T05:07:31.976Z,247.88
2019-03-22T05:09:38.471Z,200.38
2019-03-22T05:11:46.151Z,157.78
2019-03-22T05:13:54.776Z,141.50
2019-03-22T05:16:00.750Z,130.55
2019-03-22T05:18:07.922Z,143.97
2019-03-22T05:20:15.083Z,140.37
2019-03-22T05:22:23.016Z,146.65
2019-03-22T05:24:30.412Z,157.10
2019-03-22T05:26:37.941Z,168.25
2019-03-22T05:28:43.796Z,174.20
2019-03-22T05:31:22.613Z,168.05
2019-03-22T05:33:28.206Z,172.60
2019-03-22T05:35:33.724Z,169.90
2019-03-22T05:37:39.268Z,169.57
2019-03-22T05:39:44.785Z,176.45
2019-03-22T05:41:50.314Z,160.48
2019-03-22T05:43:55.874Z,170.45
2019-03-22T05:46:01.380Z,155.78
2019-03-22T05:48:06.914Z,159.40
2019-03-22T05:50:12.477Z,161.45
2019-03-22T05:52:18.004Z,157.50
2019-03-22T05:54:23.524Z,159.95
2019-03-22T05:56:29.053Z,160.80
2019-03-22T05:58:34.662Z,157.72
2019-03-22T06:00:40.185Z,162.75
2019-03-22T06:02:45.724Z,166.60
2019-03-22T06:04:51.249Z,172.60
2019-03-22T06:06:56.914Z,189.85
2019-03-22T06:09:02.485Z,172.80
2019-03-22T06:11:08.008Z,172.43
2019-03-22T06:13:13.543Z,161.47
2019-03-22T06:15:19.088Z,165.10
2019-03-22T06:17:24.615Z,171.65
2019-03-22T06:19:30.141Z,176.00
2019-03-22T06:21:35.673Z,167.47
2019-03-22T06:23:41.200Z,172.15
2019-03-22T06:25:46.728Z,166.22
2019-03-22T06:27:52.276Z,159.65
2019-03-22T06:29:57.804Z,156.70
2019-03-22T06:32:03.479Z,154.18
2019-03-22T06:34:09.011Z,142.18
2019-03-22T06:36:14.549Z,159.18
2019-03-22T06:38:20.090Z,158.25
2019-03-22T06:40:25.665Z,162.60
2019-03-22T06:42:31.190Z,168.55
2019-03-22T06:44:36.713Z,173.65
2019-03-22T06:46:42.268Z,166.00
2019-03-22T06:48:47.792Z,173.55
2019-03-22T06:50:53.325Z,173.72
2019-03-22T06:52:58.889Z,168.68
2019-03-22T06:55:06.462Z,174.40
2019-03-22T06:57:11.985Z,175.03
2019-03-22T06:59:17.537Z,172.87
2019-03-22T07:01:23.060Z,174.77
2019-03-22T07:03:28.577Z,188.82
2019-03-22T07:05:34.116Z,176.42
2019-03-22T07:07:39.636Z,163.22
2019-03-22T07:09:45.794Z,162.25
2019-03-22T07:11:51.337Z,161.60
2019-03-22T07:13:56.868Z,145.30
2019-03-22T07:16:02.432Z,152.05
2019-03-22T07:18:07.971Z,144.30
2019-03-22T07:20:13.633Z,147.28
2019-03-22T07:22:19.170Z,146.60
2019-03-22T07:24:24.691Z,136.20
2019-03-22T07:26:30.406Z,138.10
2019-03-22T07:28:35.965Z,131.80
2019-03-22T07:30:41.488Z,142.15
2019-03-22T07:32:47.030Z,121.20
2019-03-22T07:34:52.544Z,122.60
2019-03-22T07:36:58.084Z,139.68
2019-03-22T07:39:05.471Z,121.22
2019-03-22T07:41:11.000Z,237.17
2019-03-22T07:43:16.543Z,117.82
2019-03-22T07:45:22.961Z,166.28
2019-03-22T07:47:28.505Z,265.55
2019-03-22T07:49:34.210Z,124.62
2019-03-22T07:51:39.737Z,241.45
2019-03-22T07:53:45.286Z,267.37
2019-03-22T07:55:50.807Z,233.15
2019-03-22T07:57:56.713Z,243.27
2019-03-22T08:00:02.344Z,225.07
2019-03-22T08:02:08.153Z,406.73
2019-03-22T08:04:13.700Z,245.55
2019-03-22T08:06:19.252Z,296.30
2019-03-22T08:08:24.789Z,342.30
2019-03-22T08:10:30.311Z,297.95
2019-03-22T08:12:36.210Z,334.95
2019-03-22T08:14:41.773Z,406.52
2019-03-22T08:16:47.430Z,253.27
2019-03-22T08:18:52.968Z,248.30
2019-03-22T08:20:58.676Z,127.35
2019-03-22T08:23:07.261Z,135.93
2019-03-22T08:25:12.783Z,302.60
2019-03-22T08:27:18.336Z,293.33
2019-03-22T08:29:23.870Z,328.90
2019-03-22T08:31:29.392Z,199.97
2019-03-22T08:33:34.982Z,267.35
2019-03-22T08:35:40.488Z,213.43
2019-03-22T08:37:52.524Z,342.25
2019-03-22T08:39:55.806Z,161.80
2019-03-22T08:42:00.405Z,115.42
2019-03-22T08:44:05.925Z,99.67
2019-03-22T08:46:11.464Z,116.73
2019-03-22T08:48:16.997Z,126.30
2019-03-22T08:50:22.531Z,111.37
2019-03-22T08:52:28.089Z,117.57
2019-03-22T08:54:33.620Z,134.57
2019-03-22T08:56:39.154Z,159.20
2019-03-22T08:58:44.721Z,142.60
2019-03-22T09:00:57.413Z,209.72
2019-03-22T09:02:57.349Z,112.83
2019-03-22T09:05:02.958Z,101.25
2019-03-22T09:07:08.511Z,156.10
2019-03-22T09:09:15.086Z,131.57
2019-03-22T09:11:20.642Z,130.43
2019-03-22T09:13:26.229Z,135.10
2019-03-22T09:15:41.173Z,129.45
2019-03-22T09:17:38.991Z,125.92
2019-03-22T09:19:44.501Z,123.45
2019-03-22T09:21:50.059Z,104.10
2019-03-22T09:23:55.587Z,131.80
2019-03-22T09:26:01.178Z,128.05
2019-03-22T09:28:06.782Z,118.77
2019-03-22T09:30:14.121Z,154.87
2019-03-22T09:32:19.615Z,148.02
2019-03-22T09:34:33.556Z,145.68
2019-03-22T09:36:32.346Z,118.55
2019-03-22T09:38:37.827Z,120.47
2019-03-22T09:40:43.379Z,115.20
2019-03-22T09:42:49.201Z,150.72
2019-03-22T09:44:54.795Z,154.95
2019-03-22T09:47:00.321Z,141.95
2019-03-22T09:49:05.853Z,128.68
2019-03-22T09:51:11.388Z,102.58
2019-03-22T09:53:16.920Z,142.65
2019-03-22T09:55:22.449Z,103.32
2019-03-22T09:57:27.994Z,124.00
2019-03-22T09:59:33.534Z,87.22
2019-03-22T10:01:39.073Z,88.03
2019-03-22T10:03:44.956Z,87.25
2019-03-22T10:05:50.493Z,99.60
2019-03-22T10:07:56.049Z,90.60
2019-03-22T10:10:01.565Z,92.75
2019-03-22T10:12:07.240Z,101.75
2019-03-22T10:14:12.705Z,86.75
2019-03-22T10:16:18.245Z,83.55
2019-03-22T10:18:23.808Z,72.22
2019-03-22T10:20:29.323Z,73.02
2019-03-22T10:22:34.908Z,82.47
2019-03-22T10:24:40.614Z,93.03
2019-03-22T10:26:46.109Z,106.58
2019-03-22T10:28:51.637Z,86.17
2019-03-22T10:30:57.244Z,90.40
2019-03-22T10:33:02.710Z,95.57
2019-03-22T10:35:08.518Z,100.47
2019-03-22T10:37:14.063Z,122.45
2019-03-22T10:39:19.622Z,97.47
2019-03-22T10:41:25.140Z,129.80
2019-03-22T10:43:32.588Z,112.12
2019-03-22T10:45:38.117Z,99.13
2019-03-22T10:47:43.657Z,89.37
2019-03-22T10:49:49.232Z,80.90
2019-03-22T10:51:57.248Z,80.05
2019-03-22T10:54:01.968Z,77.60
2019-03-22T10:56:07.481Z,81.08
2019-03-22T10:58:20.795Z,71.62
2019-03-22T11:00:20.530Z,62.75
2019-03-22T11:02:45.591Z,70.85
2019-03-22T11:04:51.237Z,61.10
2019-03-22T11:06:56.737Z,62.20
2019-03-22T11:09:02.268Z,67.72
2019-03-22T11:11:09.577Z,67.92
2019-03-22T11:13:15.104Z,58.13
2019-03-22T11:15:20.727Z,63.80
2019-03-22T11:17:26.268Z,77.40
2019-03-22T11:19:31.793Z,84.62
2019-03-22T11:21:37.330Z,86.17
2019-03-22T11:23:42.928Z,82.08
2019-03-22T11:25:48.461Z,87.17
2019-03-22T11:27:53.984Z,80.80
2019-03-22T11:29:59.535Z,91.02
2019-03-22T11:32:12.295Z,84.58
2019-03-22T11:34:12.453Z,89.13
2019-03-22T11:36:30.369Z,83.10
2019-03-22T11:38:35.891Z,79.53
2019-03-22T11:40:41.433Z,80.67
2019-03-22T11:42:47.143Z,79.05
2019-03-22T11:44:52.674Z,70.65
2019-03-22T11:46:58.273Z,79.50
2019-03-22T11:49:03.816Z,95.32
2019-03-22T11:51:09.409Z,82.53
2019-03-22T11:53:14.940Z,85.62
2019-03-22T11:55:20.474Z,80.90
2019-03-22T11:57:26.006Z,93.05
2019-03-22T11:59:31.555Z,153.68
2019-03-22T12:01:37.176Z,109.83
2019-03-22T12:03:42.711Z,122.65
2019-03-22T12:05:48.237Z,76.17
2019-03-22T12:07:53.800Z,84.62
2019-03-22T12:09:59.332Z,78.92
2019-03-22T12:12:05.001Z,100.12
2019-03-22T12:14:10.569Z,85.30
2019-03-22T12:16:16.104Z,103.70
2019-03-22T12:18:21.633Z,76.25
2019-03-22T12:20:27.198Z,76.17
2019-03-22T12:22:32.729Z,223.03
2019-03-22T12:24:38.266Z,83.97
2019-03-22T12:26:43.796Z,94.45
2019-03-22T12:28:49.329Z,73.80
2019-03-22T12:30:54.857Z,89.85
2019-03-22T12:33:00.405Z,91.10
2019-03-22T12:35:07.982Z,72.97
2019-03-22T12:37:13.509Z,75.35
2019-03-22T12:39:19.039Z,69.60
2019-03-22T12:41:24.569Z,58.87
2019-03-22T12:43:30.097Z,127.58
2019-03-22T12:45:35.802Z,92.88
2019-03-22T12:47:41.309Z,80.67
2019-03-22T12:49:46.837Z,77.30
2019-03-22T12:51:52.373Z,62.30
2019-03-22T12:53:57.897Z,83.70
2019-03-22T12:56:04.363Z,59.18
2019-03-22T12:58:09.922Z,56.13
2019-03-22T13:00:18.182Z,82.12
2019-03-22T13:02:23.781Z,86.17
2019-03-22T13:04:29.407Z,68.00
2019-03-22T13:06:34.933Z,63.38
2019-03-22T13:08:43.545Z,62.48
2019-03-22T13:10:49.144Z,71.28
2019-03-22T13:12:54.751Z,80.35
2019-03-22T13:15:00.327Z,66.92
2019-03-22T13:17:05.803Z,70.62
2019-03-22T13:19:11.348Z,79.12
2019-03-22T13:21:16.870Z,82.22
2019-03-22T13:23:23.473Z,82.37
2019-03-22T13:25:29.000Z,80.75
2019-03-22T13:27:34.523Z,90.22
2019-03-22T13:29:40.093Z,109.12
2019-03-22T13:31:46.769Z,136.62
2019-03-22T13:33:52.350Z,145.68
2019-03-22T13:35:57.899Z,160.72
2019-03-22T13:38:03.674Z,84.97
2019-03-22T13:40:09.458Z,87.65
2019-03-22T13:42:14.994Z,81.85
2019-03-22T13:44:20.511Z,98.75
2019-03-22T13:46:26.044Z,98.30
2019-03-22T13:48:31.581Z,134.75
2019-03-22T13:50:37.121Z,102.35
2019-03-22T13:52:42.652Z,78.37
2019-03-22T13:54:48.222Z,79.40
2019-03-22T13:56:53.747Z,80.77
2019-03-22T13:58:59.289Z,75.47
2019-03-22T14:01:04.931Z,97.90
2019-03-22T14:03:10.448Z,82.78
2019-03-22T14:05:16.068Z,82.40
2019-03-22T14:07:21.689Z,121.45
2019-03-22T14:09:27.320Z,110.75
2019-03-22T14:11:32.854Z,88.20
2019-03-22T14:13:39.808Z,87.65
2019-03-22T14:15:45.444Z,102.80
2019-03-22T14:17:51.038Z,97.02
2019-03-22T14:19:58.124Z,102.00
2019-03-22T14:22:04.428Z,99.00
2019-03-22T14:24:09.941Z,95.97
2019-03-22T14:26:15.472Z,108.20
2019-03-22T14:28:21.005Z,184.45
2019-03-22T14:30:26.540Z,90.90
2019-03-22T14:32:32.076Z,146.13
2019-03-22T14:34:37.617Z,455.73
2019-03-22T14:36:43.163Z,312.90
2019-03-22T14:38:48.700Z,101.75
2019-03-22T14:40:54.244Z,78.75
2019-03-22T14:42:59.784Z,146.62
2019-03-22T14:45:08.411Z,95.30
2019-03-22T14:47:13.940Z,267.45
2019-03-22T14:49:19.481Z,134.65
2019-03-22T14:51:25.028Z,100.70
2019-03-22T14:53:30.562Z,119.80
2019-03-22T14:55:36.188Z,123.18
2019-03-22T14:57:49.002Z,215.25
2019-03-22T14:59:58.356Z,87.37
2019-03-22T15:01:56.075Z,81.30
2019-03-22T15:04:01.613Z,80.53
2019-03-22T15:06:07.218Z,87.12
2019-03-22T15:08:12.745Z,83.72
2019-03-22T15:10:18.355Z,85.05
2019-03-22T15:12:23.884Z,90.95
2019-03-22T15:14:34.079Z,91.72
2019-03-22T15:16:41.261Z,100.87
2019-03-22T15:19:04.754Z,82.65
2019-03-22T15:21:14.598Z,97.72
2019-03-22T15:23:31.669Z,82.53
2019-03-22T15:25:56.869Z,90.77
2019-03-22T15:28:04.029Z,147.37
2019-03-22T15:30:28.749Z,144.60
2019-03-22T15:35:07.235Z,153.95
2019-03-22T15:37:31.010Z,174.95
2019-03-22T15:39:38.333Z,498.20
2019-03-22T15:41:43.936Z,216.25
2019-03-22T15:43:49.552Z,622.00
2019-03-22T15:45:55.125Z,252.60
2019-03-22T15:48:00.730Z,314.23
2019-03-22T15:50:09.519Z,115.37
2019-03-22T15:52:15.046Z,106.00
2019-03-22T15:54:20.590Z,317.02
2019-03-22T15:56:26.141Z,494.58
2019-03-22T15:58:31.696Z,697.70
2019-03-22T16:00:37.224Z,541.52
2019-03-22T16:02:43.064Z,594.55
2019-03-22T16:04:48.602Z,260.50
2019-03-22T16:06:54.140Z,174.25
2019-03-22T16:08:59.690Z,169.80
2019-03-22T16:11:05.289Z,179.32
2019-03-22T16:13:10.834Z,218.07
2019-03-22T16:15:16.580Z,147.10
2019-03-22T16:17:22.055Z,100.27
2019-03-22T16:19:27.593Z,101.67
2019-03-22T16:21:33.134Z,104.95
2019-03-22T16:23:38.665Z,93.52
2019-03-22T16:25:44.188Z,99.75
2019-03-22T16:27:50.996Z,90.95
2019-03-22T16:29:56.523Z,96.70
2019-03-22T16:32:02.051Z,104.05
2019-03-22T16:34:07.581Z,151.02
2019-03-22T16:36:13.106Z,107.43
2019-03-22T16:38:18.623Z,110.63
2019-03-22T16:40:24.673Z,133.65
2019-03-22T16:42:30.364Z,130.20
2019-03-22T16:44:35.896Z,124.12
2019-03-22T16:46:41.473Z,113.00
2019-03-22T16:48:48.072Z,123.70
2019-03-22T16:50:53.611Z,122.35
2019-03-22T16:52:59.230Z,120.67
2019-03-22T16:55:06.506Z,121.00
2019-03-22T16:57:12.044Z,123.47
2019-03-22T16:59:17.586Z,115.82
2019-03-22T17:01:23.123Z,123.07
2019-03-22T17:03:28.652Z,121.67
2019-03-22T17:05:34.210Z,124.50
2019-03-22T17:07:39.737Z,121.45
2019-03-22T17:09:45.277Z,113.68
2019-03-22T17:11:50.821Z,116.75
2019-03-22T17:13:56.336Z,113.42
2019-03-22T17:16:02.080Z,126.20
2019-03-22T17:18:07.736Z,117.37
2019-03-22T17:20:13.533Z,126.60
2019-03-22T17:22:19.069Z,129.50
2019-03-22T17:24:24.608Z,136.20
2019-03-22T17:26:30.218Z,128.18
2019-03-22T17:28:35.744Z,115.70
2019-03-22T17:30:41.284Z,108.42
2019-03-22T17:32:46.814Z,101.85
2019-03-22T17:34:52.401Z,95.85
2019-03-22T17:36:57.963Z,112.10
2019-03-22T17:39:05.024Z,114.95
2019-03-22T17:41:10.625Z,114.65
2019-03-22T17:43:16.238Z,112.17
2019-03-22T17:45:21.902Z,108.25
2019-03-22T17:47:27.442Z,108.15
2019-03-22T17:49:33.077Z,116.93
2019-03-22T17:51:39.286Z,115.50
2019-03-22T17:53:44.821Z,115.35
2019-03-22T17:55:50.372Z,115.65
2019-03-22T17:57:55.898Z,119.67
2019-03-22T18:00:01.430Z,117.72
2019-03-22T18:02:07.196Z,117.05
2019-03-22T18:04:12.719Z,109.80
2019-03-22T18:06:18.256Z,113.85
2019-03-22T18:08:23.801Z,113.30
2019-03-22T18:10:29.426Z,123.45
2019-03-22T18:12:34.956Z,124.02
2019-03-22T18:14:40.483Z,120.75
2019-03-22T18:16:46.034Z,140.82
2019-03-22T18:18:51.637Z,188.32
2019-03-22T18:20:57.176Z,267.18
2019-03-22T18:23:02.752Z,303.50
2019-03-22T18:25:10.431Z,266.98
2019-03-22T18:27:16.034Z,366.95
2019-03-22T18:29:21.605Z,593.23
2019-03-22T18:31:27.140Z,624.02
2019-03-22T18:33:32.687Z,308.15
2019-03-22T18:35:38.251Z,229.80
2019-03-22T18:37:43.791Z,231.32
2019-03-22T18:39:49.628Z,268.25
2019-03-22T18:41:55.181Z,163.22
2019-03-22T18:44:00.787Z,165.80
2019-03-22T18:46:06.338Z,150.57
2019-03-22T18:48:11.921Z,149.57
2019-03-22T18:50:17.532Z,163.00
2019-03-22T18:52:23.089Z,169.45
2019-03-22T18:54:28.648Z,174.47
2019-03-22T18:56:34.198Z,178.62
2019-03-22T18:58:39.737Z,187.03
2019-03-22T19:00:45.287Z,191.85
2019-03-22T19:02:50.842Z,184.72
2019-03-22T19:04:56.386Z,186.50
2019-03-22T19:07:01.956Z,177.60
2019-03-22T19:09:08.615Z,161.82
2019-03-22T19:11:14.342Z,173.38
2019-03-22T19:13:19.872Z,173.28
2019-03-22T19:15:25.410Z,171.50
2019-03-22T19:17:30.941Z,173.02
2019-03-22T19:19:36.512Z,167.62
2019-03-22T19:21:42.119Z,177.65
2019-03-22T19:23:47.653Z,180.63
2019-03-22T19:26:06.088Z,186.55
2019-03-22T19:28:11.640Z,178.15
2019-03-22T19:30:18.334Z,176.75
2019-03-22T19:32:23.909Z,179.70
2019-03-22T19:34:29.441Z,186.12
2019-03-22T19:36:34.973Z,216.57
2019-03-22T19:38:40.549Z,207.70
2019-03-22T19:40:46.102Z,193.15
2019-03-22T19:42:51.652Z,200.78
2019-03-22T19:44:57.202Z,213.10
2019-03-22T19:47:02.748Z,194.22
2019-03-22T19:49:08.303Z,201.05
2019-03-22T19:51:13.874Z,197.72
2019-03-22T19:53:19.432Z,209.95
2019-03-22T19:55:24.979Z,227.30
2019-03-22T19:57:30.600Z,225.75
2019-03-22T19:59:36.213Z,237.08
2019-03-22T20:01:42.839Z,242.05
2019-03-22T20:03:48.384Z,233.45
2019-03-22T20:05:53.970Z,239.57
2019-03-22T20:07:59.803Z,244.10
2019-03-22T20:10:08.729Z,262.77
2019-03-22T20:12:14.309Z,302.25
2019-03-22T20:14:19.841Z,283.35
2019-03-22T20:16:25.383Z,281.80
2019-03-22T20:18:30.928Z,281.63
2019-03-22T20:20:36.465Z,283.40
2019-03-22T20:22:42.011Z,277.68
2019-03-22T20:24:47.545Z,270.67
2019-03-22T20:26:53.092Z,224.35
2019-03-22T20:28:58.689Z,211.65
2019-03-22T20:31:04.310Z,220.50
2019-03-22T20:33:09.984Z,233.28
2019-03-22T20:35:17.037Z,220.73
2019-03-22T20:37:22.820Z,206.60
2019-03-22T20:39:28.358Z,179.72
2019-03-22T20:41:33.903Z,181.82
2019-03-22T20:43:39.454Z,431.05
2019-03-22T20:45:44.995Z,382.55
2019-03-22T20:47:50.563Z,357.30
2019-03-22T20:49:56.103Z,359.37
2019-03-22T20:52:01.648Z,357.75
2019-03-22T20:54:07.298Z,291.65
2019-03-22T20:56:12.857Z,268.20
2019-03-22T20:58:18.410Z,245.88
2019-03-22T21:00:23.958Z,237.70
2019-03-22T21:02:29.498Z,259.85
2019-03-22T21:04:35.096Z,278.77
2019-03-22T21:06:40.663Z,249.47
2019-03-22T21:08:46.211Z,226.65
2019-03-22T21:10:51.757Z,223.32
2019-03-22T21:12:57.486Z,212.40
2019-03-22T21:15:03.917Z,216.57
2019-03-22T21:17:09.603Z,211.10
2019-03-22T21:19:15.487Z,224.32
2019-03-22T21:21:21.042Z,196.75
2019-03-22T21:23:35.892Z,225.20
2019-03-22T21:25:33.749Z,225.95
2019-03-22T21:27:39.299Z,215.92
2019-03-22T21:29:44.827Z,233.47
2019-03-22T21:31:50.372Z,257.00
2019-03-22T21:33:56.010Z,257.30
2019-03-22T21:36:01.538Z,248.80
2019-03-22T21:38:11.088Z,251.88
2019-03-22T21:40:14.387Z,248.97
2019-03-22T21:42:19.917Z,255.80
2019-03-22T21:44:25.490Z,277.70
2019-03-22T21:46:31.019Z,285.27
2019-03-22T21:48:36.572Z,291.15
2019-03-22T21:50:42.105Z,322.82
2019-03-22T21:52:47.658Z,350.32
2019-03-22T21:54:53.203Z,348.05
2019-03-22T21:56:58.745Z,371.55
2019-03-22T21:59:04.382Z,377.73
2019-03-22T22:01:09.928Z,383.85
2019-03-22T22:03:15.468Z,405.03
2019-03-22T22:05:21.032Z,409.48
2019-03-22T22:07:26.572Z,394.80
2019-03-22T22:09:32.117Z,383.35
2019-03-22T22:11:37.647Z,365.20
2019-03-22T22:13:43.225Z,379.77
2019-03-22T22:15:48.765Z,390.80
2019-03-22T22:17:54.308Z,370.88
2019-03-22T22:19:59.863Z,342.80
2019-03-22T22:22:05.402Z,348.02
2019-03-22T22:24:11.035Z,352.40
2019-03-22T22:26:16.565Z,357.23
2019-03-22T22:28:22.118Z,367.73
2019-03-22T22:30:27.676Z,371.75
2019-03-22T22:32:33.221Z,376.45
2019-03-22T22:34:39.648Z,363.35
2019-03-22T22:36:48.278Z,362.72
2019-03-22T22:38:53.808Z,361.85
2019-03-22T22:40:59.362Z,356.38
2019-03-22T22:43:06.044Z,348.20
2019-03-22T22:45:12.117Z,369.93
2019-03-22T22:47:17.668Z,364.00
2019-03-22T22:49:23.209Z,340.85
2019-03-22T22:51:28.754Z,331.50
2019-03-22T22:53:34.343Z,337.02
2019-03-22T22:55:39.890Z,319.62
2019-03-22T22:57:45.427Z,292.05
2019-03-22T22:59:50.981Z,297.10
2019-03-22T23:01:56.618Z,291.52
2019-03-22T23:04:02.224Z,276.67
2019-03-22T23:06:09.711Z,263.57
2019-03-22T23:08:15.013Z,279.65
2019-03-22T23:10:20.539Z,256.02
2019-03-22T23:12:44.395Z,244.47
2019-03-22T23:14:49.925Z,254.50
2019-03-22T23:16:55.459Z,242.03
2019-03-22T23:19:01.107Z,264.02
2019-03-22T23:21:06.642Z,266.98
2019-03-22T23:23:12.185Z,269.02
2019-03-22T23:25:17.750Z,259.20
2019-03-22T23:27:23.286Z,245.12
2019-03-22T23:29:28.829Z,256.50
2019-03-22T23:31:52.594Z,301.02
2019-03-22T23:33:58.202Z,301.30
2019-03-22T23:36:03.916Z,291.80
2019-03-22T23:38:09.457Z,311.50
2019-03-22T23:40:15.217Z,280.18
2019-03-22T23:42:20.853Z,260.08
2019-03-22T23:44:39.680Z,287.08
2019-03-22T23:46:45.247Z,337.32
2019-03-22T23:48:50.797Z,298.20
2019-03-22T23:50:56.362Z,260.98
2019-03-22T23:53:01.886Z,260.02
2019-03-22T23:55:07.571Z,273.25
2019-03-22T23:57:13.114Z,301.95
2019-03-22T23:59:18.657Z,281.25
